Time;durP1;ratioP1;P1;durP2;ratioP2;P2;SDS_P1;SDS_P2;PMS_P1;PMS_P2;Temp;Humidity;BMP_temperature;BMP_pressure;BME280_temperature;BME280_humidity;BME280_pressure;Samples;Min_cycle;Max_cycle;Signal;HPM_P1;HPM_P2
2023/12/21 00:01:55;;;;;;;7.35;1.60;;;20.90;99.90;;;;;;5004459;28;20026;-74
2023/12/21 00:04:22;;;;;;;4.88;1.38;;;20.90;99.90;;;;;;5011775;28;20435;-68
2023/12/21 00:06:49;;;;;;;9.95;2.08;;;20.90;99.90;;;;;;5010716;28;20033;-74
2023/12/21 00:09:16;;;;;;;3.50;0.90;;;20.70;99.90;;;;;;5000501;28;20037;-68
2023/12/21 00:11:43;;;;;;;3.40;1.33;;;20.60;99.90;;;;;;5014498;28;20554;-69
2023/12/21 00:14:10;;;;;;;3.50;0.90;;;20.50;99.90;;;;;;5007463;28;20362;-73
2023/12/21 00:16:37;;;;;;;3.70;1.10;;;20.50;99.90;;;;;;5005605;28;20583;-75
2023/12/21 00:19:04;;;;;;;5.95;1.13;;;20.50;99.90;;;;;;5008807;28;20028;-73
2023/12/21 00:21:31;;;;;;;3.22;0.88;;;20.60;99.90;;;;;;5013682;28;20025;-68
2023/12/21 00:23:59;;;;;;;2.97;1.50;;;20.60;99.90;;;;;;5007136;28;20022;-69
2023/12/21 00:26:26;;;;;;;4.55;1.10;;;20.60;99.90;;;;;;5006919;28;20030;-73
2023/12/21 00:28:53;;;;;;;4.93;1.50;;;20.50;99.90;;;;;;5005884;28;20028;-74
2023/12/21 00:31:20;;;;;;;2.75;1.02;;;20.50;99.90;;;;;;5005178;28;20029;-69
2023/12/21 00:33:47;;;;;;;4.68;1.50;;;20.70;99.90;;;;;;4985371;28;20088;-69
2023/12/21 00:36:18;;;;;;;4.50;1.33;;;20.70;99.90;;;;;;5003895;28;20026;-72
2023/12/21 00:38:45;;;;;;;4.30;1.27;;;20.80;99.90;;;;;;5005850;28;20544;-69
2023/12/21 00:41:13;;;;;;;3.35;1.02;;;21.00;99.90;;;;;;5005658;28;20774;-75
2023/12/21 00:43:40;;;;;;;6.50;1.30;;;21.10;99.90;;;;;;5001121;28;20197;-70
2023/12/21 00:46:07;;;;;;;5.75;1.55;;;21.00;99.90;;;;;;5002283;28;20129;-75
2023/12/21 00:48:38;;;;;;;4.25;1.52;;;20.90;99.90;;;;;;5003137;28;20034;-74
2023/12/21 00:51:06;;;;;;;5.57;1.75;;;21.00;99.90;;;;;;5002398;28;20081;-72
2023/12/21 00:53:34;;;;;;;6.75;2.00;;;21.00;99.90;;;;;;5002199;28;20026;-73
2023/12/21 00:56:01;;;;;;;7.50;2.10;;;21.00;99.90;;;;;;5002024;28;20052;-74
2023/12/21 00:58:29;;;;;;;7.15;2.47;;;20.90;99.90;;;;;;5002292;28;20026;-75
2023/12/21 01:00:56;;;;;;;9.70;2.13;;;20.70;99.90;;;;;;5002232;28;20022;-72
2023/12/21 01:03:25;;;;;;;5.43;1.98;;;20.70;99.90;;;;;;4996456;28;20061;-70
2023/12/21 01:05:52;;;;;;;7.70;2.00;;;20.70;99.90;;;;;;5003163;28;20076;-70
2023/12/21 01:08:19;;;;;;;9.32;2.10;;;20.70;99.90;;;;;;5002388;28;20032;-72
2023/12/21 01:10:47;;;;;;;9.23;2.25;;;20.80;99.90;;;;;;5016786;28;20435;-76
2023/12/21 01:13:14;;;;;;;6.80;2.17;;;20.90;99.90;;;;;;4998742;28;20037;-74
2023/12/21 01:15:41;;;;;;;6.90;2.47;;;21.00;99.90;;;;;;5001340;28;20142;-72
2023/12/21 01:18:09;;;;;;;10.00;2.58;;;21.20;99.90;;;;;;5001170;28;20316;-71
2023/12/21 01:20:36;;;;;;;9.25;2.53;;;21.30;99.90;;;;;;5001909;28;20480;-75
2023/12/21 01:23:03;;;;;;;10.05;2.70;;;21.30;99.90;;;;;;5002535;28;20057;-76
2023/12/21 01:25:30;;;;;;;6.53;2.35;;;21.40;99.90;;;;;;5003205;28;20021;-69
2023/12/21 01:27:57;;;;;;;7.95;2.33;;;21.50;99.90;;;;;;5000543;28;20037;-78
2023/12/21 01:30:25;;;;;;;11.90;3.05;;;21.70;99.90;;;;;;5003739;28;20523;-69
2023/12/21 01:32:53;;;;;;;8.55;2.80;;;21.90;99.90;;;;;;4999500;28;20117;-76
2023/12/21 01:35:20;;;;;;;14.30;3.10;;;22.20;99.90;;;;;;5000358;28;20077;-74
2023/12/21 01:37:47;;;;;;;9.48;2.55;;;22.40;99.90;;;;;;5002607;28;20548;-69
2023/12/21 01:40:15;;;;;;;11.20;2.47;;;23.10;99.90;;;;;;5002298;28;20030;-69
2023/12/21 01:42:42;;;;;;;9.73;2.72;;;23.50;99.90;;;;;;5001516;28;20022;-70
2023/12/21 01:45:09;;;;;;;11.15;3.00;;;23.90;99.90;;;;;;4999761;28;20507;-70
2023/12/21 01:47:37;;;;;;;9.07;2.88;;;24.20;99.90;;;;;;5000992;28;20358;-70
2023/12/21 01:50:05;;;;;;;10.38;2.53;;;24.30;99.90;;;;;;5000750;28;20036;-77
2023/12/21 01:52:33;;;;;;;10.90;2.50;;;24.00;99.90;;;;;;5001664;28;20539;-69
2023/12/21 01:55:00;;;;;;;7.75;2.30;;;23.60;99.90;;;;;;5001723;28;20038;-76
2023/12/21 01:57:28;;;;;;;11.85;2.95;;;23.50;99.90;;;;;;4999160;28;20022;-70
2023/12/21 01:59:55;;;;;;;7.38;2.38;;;23.20;99.90;;;;;;5001938;28;20384;-71
2023/12/21 02:02:22;;;;;;;9.43;2.30;;;22.80;99.90;;;;;;5013296;28;20113;-72
2023/12/21 02:04:50;;;;;;;9.27;2.30;;;22.50;99.90;;;;;;5000362;28;20061;-71
2023/12/21 02:07:18;;;;;;;12.07;3.13;;;22.30;99.90;;;;;;5001341;28;20026;-72
2023/12/21 02:09:45;;;;;;;9.50;3.05;;;22.20;99.90;;;;;;5001269;28;20116;-71
2023/12/21 02:12:12;;;;;;;9.60;2.65;;;22.30;99.90;;;;;;5005164;28;20117;-72
2023/12/21 02:14:39;;;;;;;8.05;2.85;;;22.40;99.90;;;;;;5000142;28;20029;-69
2023/12/21 02:17:12;;;;;;;7.95;2.60;;;22.70;99.90;;;;;;5002572;28;20031;-73
2023/12/21 02:19:40;;;;;;;10.68;2.70;;;22.90;99.90;;;;;;5001630;28;20025;-74
2023/12/21 02:22:09;;;;;;;10.15;2.50;;;23.00;99.90;;;;;;5001406;28;20026;-73
2023/12/21 02:24:37;;;;;;;13.18;3.25;;;23.00;99.90;;;;;;4984422;28;20034;-73
2023/12/21 02:27:04;;;;;;;11.52;2.70;;;23.10;99.90;;;;;;5001533;28;20017;-70
2023/12/21 02:29:32;;;;;;;12.50;2.42;;;23.20;99.90;;;;;;5001132;28;20065;-74
2023/12/21 02:31:59;;;;;;;11.52;2.65;;;23.40;99.90;;;;;;5000939;28;20022;-73
2023/12/21 02:34:26;;;;;;;12.63;2.53;;;23.60;99.90;;;;;;5001380;28;20037;-74
2023/12/21 02:36:53;;;;;;;9.88;2.40;;;23.40;99.90;;;;;;5003816;28;20102;-74
2023/12/21 02:39:20;;;;;;;10.63;3.80;;;23.50;99.90;;;;;;5003837;28;20097;-69
2023/12/21 02:41:54;;;;;;;8.18;2.50;;;23.60;99.90;;;;;;5003872;28;20373;-69
2023/12/21 02:44:21;;;;;;;10.77;2.90;;;23.60;99.90;;;;;;5004134;28;20097;-72
2023/12/21 02:46:48;;;;;;;9.40;2.20;;;23.80;99.90;;;;;;4998237;28;20112;-71
2023/12/21 02:49:15;;;;;;;6.78;2.53;;;24.10;99.90;;;;;;5000623;28;20033;-73
2023/12/21 02:51:42;;;;;;;7.35;1.90;;;23.70;99.90;;;;;;5001242;28;20049;-69
2023/12/21 02:54:09;;;;;;;11.10;2.55;;;23.70;99.90;;;;;;5001231;28;20526;-73
2023/12/21 02:56:36;;;;;;;8.93;2.70;;;23.30;99.90;;;;;;4999755;28;20030;-68
2023/12/21 02:59:04;;;;;;;10.68;3.25;;;23.20;99.90;;;;;;4984224;28;20388;-68
2023/12/21 03:01:31;;;;;;;11.88;2.80;;;23.30;99.90;;;;;;4998355;28;20132;-68
2023/12/21 03:04:00;;;;;;;10.43;2.95;;;23.40;99.90;;;;;;5001612;28;20030;-68
2023/12/21 03:06:27;;;;;;;11.07;3.08;;;23.10;99.90;;;;;;5001247;28;20025;-69
2023/12/21 03:08:54;;;;;;;11.93;2.85;;;22.60;99.90;;;;;;5001449;28;20054;-72
2023/12/21 03:11:22;;;;;;;9.15;2.33;;;22.00;99.90;;;;;;5000145;28;20048;-73
2023/12/21 03:13:49;;;;;;;13.68;4.35;;;21.50;99.90;;;;;;5000746;28;20057;-73
2023/12/21 03:16:18;;;;;;;8.35;2.65;;;21.30;99.90;;;;;;5004280;28;20040;-69
2023/12/21 03:18:48;;;;;;;9.82;2.72;;;21.30;99.90;;;;;;5005584;28;21238;-72
2023/12/21 03:21:16;;;;;;;10.02;2.47;;;21.20;99.90;;;;;;5006925;28;20025;-73
2023/12/21 03:23:43;;;;;;;9.40;3.10;;;21.20;99.90;;;;;;5007374;28;20048;-72
2023/12/21 03:26:10;;;;;;;7.75;2.35;;;21.20;99.90;;;;;;5006737;28;20030;-70
2023/12/21 03:28:45;;;;;;;11.40;3.00;;;21.30;99.90;;;;;;5007801;28;20058;-70
2023/12/21 03:31:12;;;;;;;9.07;2.40;;;21.40;99.90;;;;;;5005321;28;20030;-73
2023/12/21 03:33:39;;;;;;;8.65;2.83;;;21.60;99.90;;;;;;5004768;28;20444;-73
2023/12/21 03:36:07;;;;;;;9.00;2.70;;;21.90;99.90;;;;;;5004409;28;20472;-68
2023/12/21 03:38:34;;;;;;;11.93;3.50;;;22.30;99.90;;;;;;5009216;28;20048;-72
2023/12/21 03:41:01;;;;;;;13.82;2.75;;;22.70;99.90;;;;;;5008390;28;20045;-72
2023/12/21 03:43:28;;;;;;;9.13;2.50;;;23.00;99.90;;;;;;4999504;28;20022;-70
2023/12/21 03:45:55;;;;;;;9.45;2.83;;;23.20;99.90;;;;;;5001442;28;20271;-73
2023/12/21 03:48:22;;;;;;;11.48;2.78;;;23.20;99.90;;;;;;5000677;28;20516;-72
2023/12/21 03:50:50;;;;;;;10.00;3.17;;;23.70;99.90;;;;;;4982455;28;20041;-68
2023/12/21 03:53:17;;;;;;;10.38;2.42;;;24.00;99.90;;;;;;5000717;28;20026;-68
2023/12/21 03:55:44;;;;;;;14.20;3.15;;;24.40;99.90;;;;;;4983088;28;20034;-72
2023/12/21 03:58:11;;;;;;;11.27;2.55;;;25.40;99.90;;;;;;5002076;28;20069;-68
2023/12/21 04:00:38;;;;;;;11.40;3.17;;;25.70;99.90;;;;;;5002302;28;20784;-75
2023/12/21 04:03:05;;;;;;;8.40;2.72;;;25.70;99.90;;;;;;5000593;28;20292;-69
2023/12/21 04:05:33;;;;;;;13.68;3.00;;;25.10;99.90;;;;;;4999473;28;20038;-73
2023/12/21 04:08:00;;;;;;;8.55;2.53;;;25.20;99.90;;;;;;4999997;28;20034;-68
2023/12/21 04:10:27;;;;;;;10.77;3.13;;;25.40;99.90;;;;;;5000918;28;20033;-74
2023/12/21 04:12:54;;;;;;;13.63;2.97;;;25.00;99.90;;;;;;5001294;28;20030;-70
2023/12/21 04:15:21;;;;;;;11.00;3.10;;;25.00;99.90;;;;;;5001923;28;20433;-68
2023/12/21 04:17:48;;;;;;;8.82;2.60;;;25.70;99.90;;;;;;5001581;28;20349;-69
2023/12/21 04:20:15;;;;;;;10.52;2.83;;;25.80;99.90;;;;;;5000332;28;20026;-69
2023/12/21 04:22:42;;;;;;;11.27;3.17;;;25.60;99.80;;;;;;5001541;28;20641;-73
2023/12/21 04:25:10;;;;;;;10.98;2.80;;;25.10;99.90;;;;;;4987555;28;20029;-73
2023/12/21 04:27:37;;;;;;;8.45;2.88;;;24.70;99.90;;;;;;4983641;28;20383;-68
2023/12/21 04:30:05;;;;;;;13.55;3.53;;;24.40;99.90;;;;;;5002197;28;20087;-73
2023/12/21 04:32:32;;;;;;;9.52;2.33;;;24.30;99.90;;;;;;5003990;28;20117;-73
2023/12/21 04:34:59;;;;;;;11.60;2.25;;;24.30;99.90;;;;;;5003699;28;20042;-74
2023/12/21 04:37:26;;;;;;;10.70;3.15;;;24.20;99.90;;;;;;4987925;28;20480;-70
2023/12/21 04:39:54;;;;;;;11.88;2.75;;;24.60;99.90;;;;;;5001083;28;20053;-70
2023/12/21 04:42:21;;;;;;;11.93;2.55;;;24.90;99.00;;;;;;5001224;28;20416;-70
2023/12/21 04:44:48;;;;;;;10.32;2.58;;;25.00;99.20;;;;;;5000814;28;20026;-73
2023/12/21 04:47:15;;;;;;;9.75;2.90;;;24.80;99.00;;;;;;5000318;28;20504;-74
2023/12/21 04:49:42;;;;;;;10.35;2.78;;;24.80;99.30;;;;;;5000641;28;20026;-68
2023/12/21 04:52:09;;;;;;;10.77;2.50;;;25.00;98.80;;;;;;5001575;28;20112;-68
2023/12/21 04:54:36;;;;;;;10.43;3.28;;;24.70;99.00;;;;;;5000577;28;20028;-74
2023/12/21 04:57:03;;;;;;;11.23;2.85;;;24.70;98.80;;;;;;4998736;28;20429;-69
2023/12/21 04:59:30;;;;;;;11.60;2.75;;;25.00;99.20;;;;;;4999647;28;20340;-74
2023/12/21 05:01:58;;;;;;;8.93;2.40;;;25.20;98.40;;;;;;5000616;28;20560;-69
2023/12/21 05:04:25;;;;;;;10.50;3.38;;;24.80;98.70;;;;;;5000760;28;20030;-69
2023/12/21 05:06:53;;;;;;;11.23;2.50;;;24.30;99.50;;;;;;4997134;28;20038;-77
2023/12/21 05:09:20;;;;;;;10.05;2.55;;;24.10;99.90;;;;;;4995822;28;20045;-69
2023/12/21 05:11:47;;;;;;;8.60;2.90;;;24.00;99.90;;;;;;4996774;28;20030;-74
2023/12/21 05:14:14;;;;;;;9.27;2.95;;;23.90;99.90;;;;;;4995247;28;20033;-72
2023/12/21 05:16:41;;;;;;;11.48;2.67;;;24.10;99.90;;;;;;4995298;28;20030;-73
2023/12/21 05:19:08;;;;;;;11.00;3.22;;;24.10;99.90;;;;;;4995903;28;20018;-69
2023/12/21 05:21:35;;;;;;;10.45;3.28;;;24.40;99.90;;;;;;4995951;28;20057;-70
2023/12/21 05:24:02;;;;;;;7.85;2.70;;;24.90;99.30;;;;;;4995995;28;20045;-68
2023/12/21 05:26:30;;;;;;;8.50;2.15;;;25.10;98.60;;;;;;4994810;28;20681;-69
2023/12/21 05:28:57;;;;;;;8.63;2.60;;;24.80;99.10;;;;;;4993449;28;20493;-73
2023/12/21 05:31:25;;;;;;;14.70;3.33;;;24.30;99.90;;;;;;4995546;28;20026;-68
2023/12/21 05:33:52;;;;;;;8.95;3.13;;;23.90;99.90;;;;;;4994421;28;20049;-74
2023/12/21 05:36:26;;;;;;;16.80;3.67;;;23.60;99.90;;;;;;4994832;28;20522;-74
2023/12/21 05:38:54;;;;;;;12.45;3.03;;;23.40;99.90;;;;;;4995675;28;20839;-70
2023/12/21 05:41:21;;;;;;;6.82;2.03;;;23.30;99.90;;;;;;4998421;28;20113;-72
2023/12/21 05:43:48;;;;;;;9.95;2.80;;;23.40;99.90;;;;;;4982291;28;20056;-73
2023/12/21 05:46:15;;;;;;;11.18;2.47;;;23.60;99.90;;;;;;4999176;28;20077;-73
2023/12/21 05:48:42;;;;;;;10.55;2.40;;;23.60;99.90;;;;;;4996451;28;20033;-73
2023/12/21 05:51:10;;;;;;;12.38;2.95;;;23.70;99.80;;;;;;4996899;28;20069;-74
2023/12/21 05:53:37;;;;;;;10.02;2.38;;;23.70;99.90;;;;;;4998930;28;20567;-70
2023/12/21 05:56:05;;;;;;;12.55;3.47;;;23.70;99.90;;;;;;4997312;28;20650;-73
2023/12/21 05:58:33;;;;;;;10.95;2.80;;;23.70;99.90;;;;;;4995965;28;20030;-73
2023/12/21 06:01:01;;;;;;;11.60;2.97;;;23.70;99.90;;;;;;5000248;28;20030;-68
2023/12/21 06:03:28;;;;;;;10.27;2.60;;;23.70;99.80;;;;;;5000139;28;20486;-70
2023/12/21 06:05:55;;;;;;;8.63;3.13;;;23.70;99.90;;;;;;4997526;28;20045;-73
2023/12/21 06:08:22;;;;;;;9.25;2.45;;;23.90;99.90;;;;;;4995698;28;20041;-70
2023/12/21 06:10:49;;;;;;;11.00;2.65;;;23.90;99.70;;;;;;4997861;28;20034;-70
2023/12/21 06:13:16;;;;;;;9.52;2.88;;;23.70;99.80;;;;;;4998258;28;20195;-68
2023/12/21 06:15:43;;;;;;;11.88;2.80;;;23.40;99.90;;;;;;4994744;28;20044;-68
2023/12/21 06:18:10;;;;;;;11.57;3.10;;;23.10;99.90;;;;;;4999061;28;20030;-70
2023/12/21 06:20:44;;;;;;;12.23;2.70;;;22.80;99.90;;;;;;4994447;28;20046;-68
2023/12/21 06:23:11;;;;;;;11.25;3.00;;;22.80;99.90;;;;;;4998770;28;20021;-69
2023/12/21 06:25:38;;;;;;;12.27;3.35;;;22.80;99.90;;;;;;5000410;28;20029;-69
2023/12/21 06:28:05;;;;;;;10.52;3.05;;;22.80;99.90;;;;;;5000061;28;20519;-69
2023/12/21 06:30:33;;;;;;;13.43;3.28;;;22.80;99.90;;;;;;4999288;28;21050;-72
2023/12/21 06:33:00;;;;;;;9.63;2.88;;;23.00;99.90;;;;;;4999658;28;21086;-68
2023/12/21 06:35:27;;;;;;;10.60;2.75;;;22.90;99.90;;;;;;4991673;28;20155;-69
2023/12/21 06:37:54;;;;;;;11.55;2.50;;;22.90;99.90;;;;;;5000033;28;20384;-70
2023/12/21 06:40:21;;;;;;;11.07;3.60;;;22.90;99.90;;;;;;4998859;28;20030;-71
2023/12/21 06:42:48;;;;;;;12.60;3.05;;;23.20;99.90;;;;;;4999775;28;20115;-69
2023/12/21 06:45:15;;;;;;;8.10;2.30;;;23.20;99.80;;;;;;4998471;28;20433;-68
2023/12/21 06:47:42;;;;;;;8.05;2.08;;;23.00;99.80;;;;;;4999272;28;20041;-69
2023/12/21 06:50:10;;;;;;;9.00;3.00;;;22.80;99.90;;;;;;4997910;28;20084;-66
2023/12/21 06:52:37;;;;;;;11.88;3.03;;;22.80;99.90;;;;;;4999087;28;20399;-67
2023/12/21 06:55:04;;;;;;;13.45;3.13;;;22.90;99.90;;;;;;4999234;28;20039;-67
2023/12/21 06:57:31;;;;;;;9.35;3.05;;;22.80;99.90;;;;;;5000000;28;20034;-68
2023/12/21 06:59:59;;;;;;;9.82;2.90;;;22.80;99.90;;;;;;5000109;28;20014;-67
2023/12/21 07:02:26;;;;;;;14.23;3.67;;;23.80;99.90;;;;;;4999724;28;20045;-67
2023/12/21 07:04:53;;;;;;;14.30;3.97;;;23.90;99.90;;;;;;4997545;28;20100;-67
2023/12/21 07:07:20;;;;;;;11.02;3.70;;;23.40;99.90;;;;;;4996266;28;20029;-69
2023/12/21 07:09:47;;;;;;;9.30;3.15;;;23.10;99.90;;;;;;4994702;28;20485;-70
2023/12/21 07:12:15;;;;;;;10.18;3.10;;;23.80;99.90;;;;;;4996975;28;20081;-67
2023/12/21 07:14:42;;;;;;;11.80;3.05;;;25.20;99.00;;;;;;4998321;28;20442;-69
2023/12/21 07:17:09;;;;;;;12.00;3.00;;;25.10;98.50;;;;;;4996833;28;20038;-67
2023/12/21 07:19:37;;;;;;;9.18;2.78;;;24.90;98.80;;;;;;4998308;28;20029;-68
2023/12/21 07:22:05;;;;;;;7.55;2.42;;;24.50;99.50;;;;;;4998045;28;20652;-67
2023/12/21 07:24:32;;;;;;;10.93;3.05;;;24.80;99.60;;;;;;4997708;28;20172;-68
2023/12/21 07:26:59;;;;;;;10.30;2.80;;;26.00;98.00;;;;;;4998842;28;20080;-68
2023/12/21 07:29:27;;;;;;;8.50;2.60;;;27.00;96.10;;;;;;4999923;28;20029;-68
2023/12/21 07:31:54;;;;;;;12.25;2.47;;;27.30;95.80;;;;;;4996079;28;20685;-67
2023/12/21 07:34:21;;;;;;;10.00;2.90;;;27.20;95.60;;;;;;4998096;28;20057;-68
2023/12/21 07:36:48;;;;;;;7.43;2.05;;;27.70;95.10;;;;;;4999665;28;20121;-67
2023/12/21 07:39:15;;;;;;;6.90;2.30;;;28.00;94.40;;;;;;4998941;28;20065;-69
2023/12/21 07:41:42;;;;;;;7.45;2.65;;;27.10;95.20;;;;;;5001205;28;20052;-69
2023/12/21 07:44:10;;;;;;;10.10;2.60;;;27.00;95.90;;;;;;4998846;28;20084;-68
2023/12/21 07:46:37;;;;;;;8.50;2.30;;;26.70;95.20;;;;;;4999159;28;20072;-67
2023/12/21 07:49:04;;;;;;;9.40;2.30;;;26.80;94.70;;;;;;5000059;28;20042;-67
2023/12/21 07:51:31;;;;;;;9.15;2.63;;;26.30;95.70;;;;;;4997482;28;20119;-68
2023/12/21 07:53:58;;;;;;;9.65;2.40;;;26.80;94.40;;;;;;4989896;28;20026;-69
2023/12/21 07:56:25;;;;;;;8.77;2.22;;;26.40;94.40;;;;;;4999243;28;20334;-66
2023/12/21 07:58:52;;;;;;;7.97;2.38;;;26.00;94.90;;;;;;4997869;28;20100;-68
2023/12/21 08:01:19;;;;;;;10.63;2.83;;;25.90;94.80;;;;;;4997892;28;20046;-68
2023/12/21 08:03:46;;;;;;;11.52;3.08;;;25.80;95.00;;;;;;5001178;28;20516;-67
2023/12/21 08:06:21;;;;;;;10.93;2.58;;;26.40;95.00;;;;;;5002841;28;20033;-65
2023/12/21 08:08:50;;;;;;;10.85;2.60;;;26.50;94.80;;;;;;5000875;28;20393;-67
2023/12/21 08:11:17;;;;;;;9.57;2.40;;;27.10;94.20;;;;;;5003417;28;20496;-70
2023/12/21 08:13:44;;;;;;;8.48;2.30;;;26.20;94.40;;;;;;5002322;28;20026;-68
2023/12/21 08:16:11;;;;;;;12.02;2.75;;;25.60;95.40;;;;;;5000311;28;20643;-66
2023/12/21 08:18:38;;;;;;;8.38;2.13;;;25.60;95.40;;;;;;4996469;28;20144;-66
2023/12/21 08:21:06;;;;;;;9.90;2.95;;;24.80;96.00;;;;;;4997751;28;20476;-66
2023/12/21 08:23:33;;;;;;;10.65;3.15;;;24.30;96.50;;;;;;5000780;28;20033;-70
2023/12/21 08:26:00;;;;;;;10.73;2.72;;;23.70;97.30;;;;;;4998891;28;20022;-70
2023/12/21 08:28:29;;;;;;;9.68;2.72;;;23.20;98.00;;;;;;4998538;28;20048;-65
2023/12/21 08:30:56;;;;;;;13.02;3.33;;;22.80;98.60;;;;;;4998531;28;20083;-72
2023/12/21 08:33:23;;;;;;;13.43;2.70;;;22.40;99.00;;;;;;4995719;28;20041;-72
2023/12/21 08:35:50;;;;;;;9.95;3.10;;;22.40;99.60;;;;;;4996573;28;20037;-68
2023/12/21 08:38:17;;;;;;;12.05;3.05;;;22.20;99.60;;;;;;4997179;28;20033;-66
2023/12/21 08:40:47;;;;;;;10.77;4.03;;;22.10;99.90;;;;;;5000366;28;20540;-67
2023/12/21 08:43:14;;;;;;;17.42;5.07;;;22.20;99.90;;;;;;4995906;28;20104;-65
2023/12/21 08:45:41;;;;;;;13.00;4.07;;;22.10;99.90;;;;;;4996230;28;20304;-65
2023/12/21 08:48:08;;;;;;;11.13;2.50;;;22.10;99.90;;;;;;4997249;28;20115;-67
2023/12/21 08:50:35;;;;;;;11.90;3.15;;;21.90;99.90;;;;;;4994339;28;20320;-69
2023/12/21 08:53:03;;;;;;;9.73;3.35;;;21.70;99.90;;;;;;4995849;28;20112;-69
2023/12/21 08:55:30;;;;;;;13.23;2.85;;;21.60;99.90;;;;;;5001013;28;20029;-70
2023/12/21 08:57:58;;;;;;;14.60;3.92;;;21.50;99.90;;;;;;4995596;28;20099;-65
2023/12/21 09:00:26;;;;;;;8.55;2.80;;;21.30;99.90;;;;;;4994324;28;20108;-65
2023/12/21 09:02:53;;;;;;;12.20;3.42;;;21.20;99.90;;;;;;4994204;28;20136;-65
2023/12/21 09:05:20;;;;;;;10.57;2.58;;;21.20;99.90;;;;;;4991886;28;21052;-64
2023/12/21 09:07:47;;;;;;;14.57;2.75;;;21.00;99.90;;;;;;4993829;28;20065;-69
2023/12/21 09:10:14;;;;;;;18.10;4.38;;;20.80;99.90;;;;;;4994783;28;20033;-69
2023/12/21 09:12:41;;;;;;;16.35;3.13;;;20.80;99.90;;;;;;4993376;28;20075;-65
2023/12/21 09:15:08;;;;;;;11.35;2.75;;;20.70;99.90;;;;;;4992513;28;20100;-68
2023/12/21 09:17:36;;;;;;;9.88;3.15;;;20.60;99.90;;;;;;4993820;28;20026;-70
2023/12/21 09:20:04;;;;;;;9.95;2.65;;;20.60;99.90;;;;;;4995728;28;20026;-67
2023/12/21 09:22:32;;;;;;;9.43;2.25;;;20.60;99.90;;;;;;4995871;28;20021;-68
2023/12/21 09:25:01;;;;;;;11.82;3.25;;;20.50;99.90;;;;;;4997842;28;20451;-70
2023/12/21 09:27:30;;;;;;;12.70;2.88;;;20.50;99.90;;;;;;4998898;28;20026;-64
2023/12/21 09:29:58;;;;;;;10.07;2.85;;;20.50;99.90;;;;;;4998008;28;20060;-70
2023/12/21 09:34:57;;;;;;;12.88;3.00;;;20.40;99.90;;;;;;5033229;28;20049;-66
2023/12/21 09:37:25;;;;;;;13.32;3.58;;;20.30;99.90;;;;;;5035478;28;21058;-70
2023/12/21 09:39:53;;;;;;;14.25;2.90;;;20.30;99.90;;;;;;5035499;28;20041;-68
2023/12/21 09:42:21;;;;;;;10.27;2.67;;;20.20;99.90;;;;;;5035048;28;20024;-72
2023/12/21 09:44:49;;;;;;;10.85;2.92;;;20.20;99.90;;;;;;5035265;28;20029;-69
2023/12/21 09:47:19;;;;;;;11.95;3.08;;;20.20;99.90;;;;;;5035741;28;20040;-70
2023/12/21 09:49:48;;;;;;;14.25;3.03;;;20.20;99.90;;;;;;5035212;28;20017;-68
2023/12/21 09:52:20;;;;;;;12.73;3.22;;;20.10;99.90;;;;;;5034938;28;20471;-69
2023/12/21 09:54:52;;;;;;;11.93;2.90;;;20.10;99.90;;;;;;5035073;28;20071;-68
2023/12/21 09:57:21;;;;;;;19.53;3.47;;;20.10;99.90;;;;;;5034670;28;20047;-67
2023/12/21 09:59:49;;;;;;;12.43;3.05;;;20.10;99.90;;;;;;5035666;28;20020;-71
2023/12/21 10:02:16;;;;;;;12.27;3.72;;;20.10;99.90;;;;;;5031767;28;20084;-72
2023/12/21 10:04:45;;;;;;;12.48;3.53;;;20.00;99.90;;;;;;5035117;28;20025;-71
2023/12/21 10:07:12;;;;;;;10.27;2.95;;;20.00;99.90;;;;;;5035007;28;20461;-69
2023/12/21 10:09:40;;;;;;;8.00;2.53;;;20.00;99.90;;;;;;5034721;28;20616;-73
2023/12/21 10:12:07;;;;;;;13.30;3.30;;;19.90;99.90;;;;;;5034324;28;20650;-73
2023/12/21 10:14:34;;;;;;;12.85;2.95;;;19.90;99.90;;;;;;5033162;28;20032;-69
2023/12/21 10:17:02;;;;;;;9.05;3.22;;;19.80;99.90;;;;;;5034008;28;20029;-70
2023/12/21 10:19:29;;;;;;;13.60;3.75;;;19.80;99.90;;;;;;5035492;28;20021;-70
2023/12/21 10:21:57;;;;;;;9.75;2.90;;;19.60;99.90;;;;;;5034772;28;20035;-70
2023/12/21 10:24:25;;;;;;;14.50;3.50;;;19.60;99.90;;;;;;5035434;28;20613;-69
2023/12/21 10:26:52;;;;;;;16.33;3.03;;;19.50;99.90;;;;;;5035219;28;20296;-68
2023/12/21 10:29:20;;;;;;;11.50;3.15;;;19.40;99.90;;;;;;5036627;28;20116;-69
2023/12/21 10:31:48;;;;;;;12.82;2.67;;;19.30;99.90;;;;;;5034184;28;20024;-68
2023/12/21 10:34:16;;;;;;;9.55;2.95;;;19.30;99.90;;;;;;5033403;28;20158;-70
2023/12/21 10:36:44;;;;;;;13.85;3.65;;;19.30;99.90;;;;;;5033911;28;20440;-67
2023/12/21 10:39:12;;;;;;;14.32;3.88;;;19.20;99.90;;;;;;5033367;28;20040;-70
2023/12/21 10:41:44;;;;;;;17.55;3.20;;;19.20;99.90;;;;;;5033359;28;20983;-67
2023/12/21 10:44:15;;;;;;;14.13;3.63;;;19.10;99.90;;;;;;5033818;28;20471;-67
2023/12/21 10:46:42;;;;;;;14.02;3.65;;;19.10;99.90;;;;;;5034148;28;20036;-69
2023/12/21 10:49:11;;;;;;;11.65;4.05;;;19.20;99.90;;;;;;5033766;28;20025;-70
2023/12/21 10:51:40;;;;;;;12.93;3.30;;;19.20;99.90;;;;;;5033627;28;20068;-71
2023/12/21 10:54:08;;;;;;;17.15;3.30;;;19.20;99.90;;;;;;5031936;28;20457;-71
2023/12/21 10:56:45;;;;;;;13.63;3.45;;;19.20;99.90;;;;;;5033521;28;20112;-71
2023/12/21 10:59:14;;;;;;;15.80;3.20;;;19.30;99.90;;;;;;5032764;28;20139;-69
2023/12/21 11:01:42;;;;;;;12.98;3.00;;;19.20;99.90;;;;;;5029840;28;20453;-69
2023/12/21 11:04:10;;;;;;;17.55;3.33;;;19.30;99.90;;;;;;5034314;28;20114;-72
2023/12/21 11:06:38;;;;;;;16.83;3.67;;;19.30;99.90;;;;;;5033944;28;20025;-71
2023/12/21 11:09:06;;;;;;;11.13;3.05;;;19.40;99.90;;;;;;5033943;28;20031;-68
2023/12/21 11:11:34;;;;;;;14.23;2.70;;;19.30;99.90;;;;;;5033858;28;20059;-69
2023/12/21 11:14:01;;;;;;;11.55;3.20;;;19.30;99.90;;;;;;5033403;28;20104;-73
2023/12/21 11:16:52;;;;;;;13.52;3.40;;;19.30;99.90;;;;;;5032855;28;20478;-68
2023/12/21 11:19:27;;;;;;;10.45;2.35;;;19.30;99.90;;;;;;5035834;28;20061;-66
2023/12/21 11:21:56;;;;;;;14.00;3.53;;;19.30;99.90;;;;;;5033103;28;20025;-67
2023/12/21 11:24:24;;;;;;;11.20;2.88;;;19.40;99.90;;;;;;5031266;28;20817;-66
2023/12/21 11:26:52;;;;;;;12.52;3.20;;;19.30;99.90;;;;;;5035830;28;20041;-70
2023/12/21 11:29:28;;;;;;;15.18;3.47;;;19.30;99.90;;;;;;5036966;28;20043;-67
2023/12/21 11:31:56;;;;;;;16.85;3.33;;;19.30;99.90;;;;;;5035647;28;20036;-66
2023/12/21 11:34:37;;;;;;;13.50;2.97;;;19.30;99.90;;;;;;5036279;28;20044;-67
2023/12/21 11:37:16;;;;;;;15.10;3.00;;;19.20;99.90;;;;;;5038435;28;20036;-71
2023/12/21 11:39:46;;;;;;;12.40;3.60;;;19.30;99.90;;;;;;5036440;28;20029;-70
2023/12/21 11:42:13;;;;;;;10.60;2.90;;;19.30;99.90;;;;;;5037575;28;20025;-66
2023/12/21 11:44:40;;;;;;;16.33;3.53;;;19.30;99.90;;;;;;5039472;28;20017;-69
2023/12/21 11:47:16;;;;;;;16.02;3.47;;;19.30;99.90;;;;;;5037002;28;20032;-66
2023/12/21 11:49:44;;;;;;;12.70;3.15;;;19.30;99.90;;;;;;5031000;28;20048;-73
2023/12/21 11:52:22;;;;;;;12.40;3.65;;;19.20;99.90;;;;;;5037407;28;21073;-66
2023/12/21 11:54:50;;;;;;;16.15;3.10;;;19.30;99.90;;;;;;5038602;28;20116;-66
2023/12/21 11:57:17;;;;;;;11.32;2.92;;;19.20;99.90;;;;;;5038607;28;20024;-73
2023/12/21 11:59:45;;;;;;;20.35;3.47;;;19.20;99.90;;;;;;5038497;28;20033;-67
2023/12/21 12:02:13;;;;;;;15.25;3.10;;;19.30;99.90;;;;;;5036183;28;20025;-73
2023/12/21 12:04:40;;;;;;;10.15;3.30;;;19.20;99.90;;;;;;5037254;28;20021;-67
2023/12/21 12:07:07;;;;;;;11.93;3.85;;;19.20;99.90;;;;;;5040000;28;20028;-74
2023/12/21 12:09:34;;;;;;;13.90;2.78;;;19.20;99.90;;;;;;5038742;28;20029;-66
2023/12/21 12:12:02;;;;;;;13.57;3.20;;;19.10;99.90;;;;;;5037728;28;20075;-68
2023/12/21 12:14:29;;;;;;;14.43;3.25;;;19.20;99.90;;;;;;5039153;28;20056;-75
2023/12/21 12:16:56;;;;;;;10.35;2.78;;;19.20;99.90;;;;;;5040202;28;20214;-68
2023/12/21 12:19:26;;;;;;;9.60;3.58;;;19.10;99.90;;;;;;5041052;28;20551;-75
2023/12/21 12:21:54;;;;;;;12.07;2.70;;;19.10;99.90;;;;;;5038482;28;20036;-68
2023/12/21 12:24:22;;;;;;;10.38;3.28;;;19.10;99.90;;;;;;5044145;28;20024;-72
2023/12/21 12:26:50;;;;;;;13.35;3.80;;;19.10;99.90;;;;;;5041636;28;20082;-73
2023/12/21 12:29:17;;;;;;;15.65;3.33;;;19.10;99.90;;;;;;5039411;28;20103;-65
2023/12/21 12:31:44;;;;;;;11.93;2.95;;;19.00;99.90;;;;;;5042137;28;20032;-73
2023/12/21 12:34:12;;;;;;;15.48;3.17;;;19.00;99.90;;;;;;5039258;28;20037;-75
2023/12/21 12:36:39;;;;;;;10.70;2.90;;;19.00;99.90;;;;;;5041192;28;20090;-74
2023/12/21 12:39:07;;;;;;;13.02;3.53;;;18.90;99.90;;;;;;5040420;28;20027;-75
2023/12/21 12:41:35;;;;;;;12.82;3.10;;;18.90;99.90;;;;;;5039673;28;20052;-75
2023/12/21 12:44:02;;;;;;;8.65;2.70;;;18.90;99.90;;;;;;5038564;28;20036;-74
2023/12/21 12:46:30;;;;;;;16.10;3.22;;;18.80;99.90;;;;;;5038667;28;20043;-67